Del Haven, New Jersey
Current Conditions -  °F | °C
As of 3:15 PM on Sunday 21 Dec 2014 (Local Time) from KWWD Reporting Station
Clear Clear  
Wind Chill: 34°   Ceiling: Unl
Heat Index: 39°   Visibility: 10mi
Dew Point: 21°   Wind: 8mph
Humidity: 49%   Direction: 290°WNW
Pressure: 30.26"   Gusts: NA
Location:  39.0306°N, 74.9246°W
Report Text: KWWD 212015Z AUTO 29007KT 10SM CLR 04/M06 A3026 RMK AO1
Loading
Personal Weather Stations






























Interactive Weather Map New forecast layout! Learn more

10-Day Weather Forecast

Advertisements
Track Severe Weather on mobile